createdAt,value
2018-12-20T00:00:14.170Z,12.27
2018-12-20T00:02:44.772Z,12.07
2018-12-20T00:05:15.467Z,10.60
2018-12-20T00:07:45.643Z,13.60
2018-12-20T00:10:16.637Z,14.93
2018-12-20T00:12:47.724Z,11.03
2018-12-20T00:15:17.753Z,16.03
2018-12-20T00:17:50.148Z,14.67
2018-12-20T00:20:20.672Z,12.43
2018-12-20T00:22:50.530Z,16.30
2018-12-20T00:25:22.167Z,16.10
2018-12-20T00:27:52.970Z,19.27
2018-12-20T00:30:23.277Z,15.70
2018-12-20T00:32:54.579Z,15.70
2018-12-20T00:35:25.172Z,17.03
2018-12-20T00:37:56.203Z,19.60
2018-12-20T00:40:26.273Z,22.10
2018-12-20T00:42:57.072Z,17.00
2018-12-20T00:45:26.882Z,15.67
2018-12-20T00:47:58.813Z,15.63
2018-12-20T00:50:28.893Z,16.63
2018-12-20T00:52:59.327Z,17.77
2018-12-20T00:55:29.216Z,15.00
2018-12-20T00:57:59.096Z,17.67
2018-12-20T01:00:30.273Z,14.60
2018-12-20T01:03:01.690Z,14.40
2018-12-20T01:05:32.948Z,14.20
2018-12-20T01:08:03.520Z,15.60
2018-12-20T01:10:34.431Z,14.93
2018-12-20T01:13:05.928Z,17.40
2018-12-20T01:15:36.381Z,15.07
2018-12-20T01:18:07.087Z,16.63
2018-12-20T01:20:37.477Z,17.47
2018-12-20T01:23:07.493Z,16.40
2018-12-20T01:25:38.448Z,14.93
2018-12-20T01:28:08.563Z,15.30
2018-12-20T01:30:38.603Z,15.40
2018-12-20T01:33:09.571Z,14.37
2018-12-20T01:35:39.475Z,17.43
2018-12-20T01:38:09.508Z,21.30
2018-12-20T01:40:39.772Z,12.90
2018-12-20T01:43:10.393Z,15.10
2018-12-20T01:45:40.537Z,19.90
2018-12-20T01:48:11.113Z,19.43
2018-12-20T01:50:41.523Z,16.10
2018-12-20T01:53:11.307Z,14.57
2018-12-20T01:55:41.568Z,21.83
2018-12-20T01:58:11.711Z,13.83
2018-12-20T02:00:41.449Z,18.90
2018-12-20T02:03:12.082Z,15.73
2018-12-20T02:05:42.255Z,18.17
2018-12-20T02:08:12.354Z,16.30
2018-12-20T02:10:42.117Z,19.57
2018-12-20T02:13:12.522Z,21.13
2018-12-20T02:15:42.821Z,19.00
2018-12-20T02:18:13.409Z,14.93
2018-12-20T02:20:43.582Z,17.67
2018-12-20T02:23:13.325Z,20.17
2018-12-20T02:25:43.452Z,16.93
2018-12-20T02:28:13.520Z,16.60
2018-12-20T02:30:43.582Z,19.10
2018-12-20T02:33:14.243Z,16.03
2018-12-20T02:35:44.229Z,19.27
2018-12-20T02:38:14.348Z,21.40
2018-12-20T02:40:44.688Z,19.93
2018-12-20T02:43:14.873Z,17.60
2018-12-20T02:45:45.335Z,17.43
2018-12-20T02:48:15.408Z,15.40
2018-12-20T02:50:45.404Z,19.13
2018-12-20T02:53:15.645Z,18.03
2018-12-20T02:55:45.520Z,19.63
2018-12-20T02:58:15.774Z,18.43
2018-12-20T03:00:45.944Z,19.90
2018-12-20T03:03:16.539Z,20.33
2018-12-20T03:05:46.795Z,15.67
2018-12-20T03:08:16.927Z,17.03
2018-12-20T03:10:47.480Z,16.07
2018-12-20T03:13:17.539Z,21.90
2018-12-20T03:15:47.937Z,19.40
2018-12-20T03:18:18.470Z,17.00
2018-12-20T03:20:48.528Z,21.30
2018-12-20T03:23:18.305Z,20.43
2018-12-20T03:25:48.399Z,20.70
2018-12-20T03:28:18.252Z,14.77
2018-12-20T03:30:49.013Z,25.83
2018-12-20T03:33:19.780Z,19.97
2018-12-20T03:35:49.899Z,26.27
2018-12-20T03:38:20.745Z,16.73
2018-12-20T03:40:50.905Z,19.43
2018-12-20T03:43:20.959Z,20.00
2018-12-20T03:45:51.063Z,21.40
2018-12-20T03:48:21.758Z,19.70
2018-12-20T03:50:52.111Z,18.63
2018-12-20T03:53:23.168Z,21.30
2018-12-20T03:55:53.130Z,22.10
2018-12-20T03:58:23.507Z,20.20
2018-12-20T04:00:53.852Z,20.83
2018-12-20T04:03:24.774Z,16.20
2018-12-20T04:05:54.705Z,20.67
2018-12-20T04:08:25.087Z,20.20
2018-12-20T04:10:55.719Z,23.90
2018-12-20T04:13:26.325Z,18.33
2018-12-20T04:15:56.440Z,18.10
2018-12-20T04:18:26.697Z,22.73
2018-12-20T04:20:57.775Z,19.13
2018-12-20T04:23:27.628Z,23.93
2018-12-20T04:25:57.714Z,21.27
2018-12-20T04:28:27.846Z,24.03
2018-12-20T04:30:58.505Z,20.90
2018-12-20T04:33:29.000Z,19.47
2018-12-20T04:35:59.976Z,24.70
2018-12-20T04:38:30.185Z,21.83
2018-12-20T04:41:00.082Z,21.90
2018-12-20T04:43:30.580Z,21.07
2018-12-20T04:46:01.162Z,20.03
2018-12-20T04:48:30.971Z,21.07
2018-12-20T04:51:01.025Z,26.37
2018-12-20T04:53:31.196Z,19.90
2018-12-20T04:56:01.633Z,16.97
2018-12-20T04:58:31.540Z,19.90
2018-12-20T05:01:01.970Z,22.70
2018-12-20T05:03:32.269Z,20.80
2018-12-20T05:06:02.587Z,22.10
2018-12-20T05:08:32.836Z,25.17
2018-12-20T05:11:02.780Z,21.17
2018-12-20T05:13:33.116Z,21.97
2018-12-20T05:16:04.225Z,22.30
2018-12-20T05:18:34.695Z,21.10
2018-12-20T05:21:05.161Z,25.10
2018-12-20T05:23:36.460Z,17.80
2018-12-20T05:26:06.677Z,24.03
2018-12-20T05:28:36.867Z,19.30
2018-12-20T05:31:08.807Z,21.20
2018-12-20T05:33:39.236Z,23.23
2018-12-20T05:36:09.436Z,24.50
2018-12-20T05:38:39.605Z,21.57
2018-12-20T05:41:10.341Z,19.70
2018-12-20T05:43:40.852Z,20.10
2018-12-20T05:46:10.995Z,24.47
2018-12-20T05:48:40.984Z,26.43
2018-12-20T05:51:11.902Z,23.37
2018-12-20T05:53:42.117Z,22.57
2018-12-20T05:56:12.779Z,22.20
2018-12-20T05:58:44.549Z,23.60
2018-12-20T06:01:14.891Z,24.63
2018-12-20T06:03:45.064Z,25.80
2018-12-20T06:06:15.345Z,22.77
2018-12-20T06:08:45.396Z,23.60
2018-12-20T06:11:16.285Z,22.77
2018-12-20T06:13:47.636Z,20.43
2018-12-20T06:16:19.197Z,21.33
2018-12-20T06:18:49.146Z,20.93
2018-12-20T06:21:20.610Z,20.37
2018-12-20T06:23:51.008Z,19.80
2018-12-20T06:26:21.264Z,24.30
2018-12-20T06:28:53.283Z,20.10
2018-12-20T06:31:25.773Z,22.63
2018-12-20T06:33:58.710Z,19.90
2018-12-20T06:36:33.874Z,23.00
2018-12-20T06:39:09.632Z,21.50
2018-12-20T06:41:44.432Z,18.40
2018-12-20T06:44:16.316Z,21.90
2018-12-20T06:46:51.960Z,25.20
2018-12-20T06:49:23.765Z,25.30
2018-12-20T06:51:56.020Z,22.27
2018-12-20T06:54:27.235Z,24.43
2018-12-20T06:56:58.187Z,20.50
2018-12-20T06:59:29.963Z,26.03
2018-12-20T07:04:39.579Z,26.43
2018-12-20T07:07:09.710Z,20.10
2018-12-20T07:09:40.630Z,24.43
2018-12-20T07:12:11.848Z,21.70
2018-12-20T07:14:43.287Z,21.70
2018-12-20T07:17:14.387Z,26.23
2018-12-20T07:19:44.994Z,22.93
2018-12-20T07:22:15.137Z,24.67
2018-12-20T07:24:51.281Z,22.93
2018-12-20T07:27:22.519Z,23.30
2018-12-20T07:29:54.329Z,21.37
2018-12-20T07:32:25.348Z,26.13
2018-12-20T07:34:56.312Z,22.20
2018-12-20T07:37:26.750Z,22.87
2018-12-20T07:39:56.956Z,25.23
2018-12-20T07:42:27.351Z,26.27
2018-12-20T07:44:57.466Z,21.77
2018-12-20T07:47:28.508Z,25.10
2018-12-20T07:50:00.547Z,22.50
2018-12-20T07:52:30.403Z,23.93
2018-12-20T07:55:00.840Z,25.30
2018-12-20T07:57:30.877Z,23.60
2018-12-20T08:00:00.902Z,24.73
2018-12-20T08:02:32.448Z,23.17
2018-12-20T08:05:06.535Z,24.40
2018-12-20T08:07:36.925Z,27.00
2018-12-20T08:10:10.452Z,23.60
2018-12-20T08:12:40.336Z,24.10
2018-12-20T08:15:11.585Z,23.63
2018-12-20T08:17:41.682Z,23.87
2018-12-20T08:20:14.478Z,21.33
2018-12-20T08:22:52.360Z,23.73
2018-12-20T08:25:24.012Z,24.47
2018-12-20T08:27:54.359Z,23.13
2018-12-20T08:30:25.499Z,22.67
2018-12-20T08:32:55.577Z,26.47
2018-12-20T08:35:26.971Z,24.07
2018-12-20T08:38:00.397Z,24.20
2018-12-20T08:40:31.381Z,23.20
2018-12-20T08:43:03.112Z,24.70
2018-12-20T08:45:33.157Z,25.00
2018-12-20T08:48:03.340Z,26.27
2018-12-20T08:50:34.628Z,29.97
2018-12-20T08:53:05.162Z,25.40
2018-12-20T08:55:36.048Z,21.43
2018-12-20T08:58:06.646Z,21.73
2018-12-20T09:00:38.338Z,21.93
2018-12-20T09:03:10.196Z,28.67
2018-12-20T09:05:42.103Z,19.70
2018-12-20T09:08:12.123Z,22.40
2018-12-20T09:10:42.592Z,24.60
2018-12-20T09:13:14.076Z,19.50
2018-12-20T09:15:44.652Z,20.97
2018-12-20T09:18:14.834Z,17.50
2018-12-20T09:20:45.335Z,17.60
2018-12-20T09:23:16.623Z,18.27
2018-12-20T09:25:46.945Z,15.97
2018-12-20T09:28:18.018Z,16.83
2018-12-20T09:30:48.527Z,14.40
2018-12-20T09:33:19.577Z,14.27
2018-12-20T09:35:50.887Z,13.87
2018-12-20T09:38:21.589Z,13.83
2018-12-20T09:40:52.713Z,12.23
2018-12-20T09:43:24.875Z,10.57
2018-12-20T09:45:55.208Z,13.63
2018-12-20T09:48:27.086Z,11.37
2018-12-20T09:50:58.855Z,12.60
2018-12-20T09:53:29.056Z,10.90
2018-12-20T09:56:00.575Z,10.50
2018-12-20T09:58:31.123Z,10.87
2018-12-20T10:01:01.277Z,9.73
2018-12-20T10:03:31.629Z,12.00
2018-12-20T10:06:02.800Z,12.50
2018-12-20T10:08:33.783Z,10.93
2018-12-20T10:11:05.048Z,11.47
2018-12-20T10:13:35.229Z,12.00
2018-12-20T10:16:06.514Z,10.87
2018-12-20T10:18:36.936Z,10.93
2018-12-20T10:21:07.614Z,8.33
2018-12-20T10:23:38.029Z,8.70
2018-12-20T10:26:09.890Z,8.57
2018-12-20T10:28:40.959Z,13.17
2018-12-20T10:31:14.780Z,10.37
2018-12-20T10:33:45.524Z,11.27
2018-12-20T10:36:15.615Z,7.73
2018-12-20T10:38:45.948Z,7.80
2018-12-20T10:41:16.948Z,10.03
2018-12-20T10:43:48.233Z,9.40
2018-12-20T10:46:18.636Z,11.23
2018-12-20T10:48:48.444Z,9.50
2018-12-20T10:51:19.691Z,7.60
2018-12-20T10:53:50.508Z,8.50
2018-12-20T10:56:21.107Z,10.63
2018-12-20T10:58:51.328Z,10.83
2018-12-20T11:01:27.235Z,13.47
2018-12-20T11:04:03.251Z,7.77
2018-12-20T11:06:40.166Z,12.10
2018-12-20T11:09:15.688Z,13.67
2018-12-20T11:11:53.722Z,8.03
2018-12-20T11:14:24.813Z,14.30
2018-12-20T11:16:56.359Z,9.80
2018-12-20T11:19:27.394Z,10.57
2018-12-20T11:21:59.598Z,7.60
2018-12-20T11:24:29.719Z,11.27
2018-12-20T11:27:00.349Z,18.83
2018-12-20T11:29:31.412Z,10.03
2018-12-20T11:32:02.101Z,8.40
2018-12-20T11:34:32.915Z,14.73
2018-12-20T11:37:07.706Z,10.33
2018-12-20T11:39:39.541Z,7.17
2018-12-20T11:42:13.208Z,7.40
2018-12-20T11:44:45.551Z,8.23
2018-12-20T11:47:22.888Z,7.43
2018-12-20T11:49:53.354Z,6.93
2018-12-20T11:52:25.268Z,16.23
2018-12-20T11:54:58.050Z,10.23
2018-12-20T11:57:33.829Z,15.63
2018-12-20T12:00:10.766Z,7.20
2018-12-20T12:02:41.800Z,6.73
2018-12-20T12:05:11.880Z,6.37
2018-12-20T12:07:42.021Z,7.20
2018-12-20T12:10:13.976Z,11.13
2018-12-20T12:12:45.810Z,7.73
2018-12-20T12:15:17.705Z,7.67
2018-12-20T12:17:54.195Z,8.83
2018-12-20T12:20:24.166Z,10.27
2018-12-20T12:22:55.880Z,8.40
2018-12-20T12:25:27.564Z,9.23
2018-12-20T12:27:58.183Z,7.57
2018-12-20T12:30:29.025Z,9.13
2018-12-20T12:33:01.855Z,12.73
2018-12-20T12:35:33.278Z,11.73
2018-12-20T12:38:06.082Z,8.13
2018-12-20T12:40:36.425Z,6.80
2018-12-20T12:43:06.651Z,5.93
2018-12-20T12:45:37.688Z,7.77
2018-12-20T12:48:07.896Z,12.00
2018-12-20T12:50:39.492Z,11.63
2018-12-20T12:53:10.951Z,6.03
2018-12-20T12:55:41.957Z,9.07
2018-12-20T12:58:13.544Z,7.60
2018-12-20T13:00:45.656Z,9.07
2018-12-20T13:03:17.197Z,5.13
2018-12-20T13:05:49.434Z,8.27
2018-12-20T13:08:21.277Z,11.43
2018-12-20T13:10:51.546Z,7.17
2018-12-20T13:13:24.387Z,6.40
2018-12-20T13:15:56.155Z,11.17
2018-12-20T13:18:26.243Z,10.20
2018-12-20T13:20:58.546Z,8.80
2018-12-20T13:23:31.256Z,8.90
2018-12-20T13:26:03.370Z,7.20
2018-12-20T13:28:35.626Z,8.23
2018-12-20T13:31:08.582Z,7.20
2018-12-20T13:33:39.544Z,6.90
2018-12-20T13:36:11.431Z,9.17
2018-12-20T13:38:41.658Z,7.83
2018-12-20T13:41:14.047Z,9.03
2018-12-20T13:43:46.915Z,5.90
2018-12-20T13:46:17.653Z,8.03
2018-12-20T13:48:49.999Z,7.70
2018-12-20T13:51:21.098Z,7.33
2018-12-20T13:53:53.123Z,6.33
2018-12-20T13:56:24.745Z,7.40
2018-12-20T13:59:03.235Z,11.23
2018-12-20T14:01:28.645Z,6.80
2018-12-20T14:03:59.403Z,6.10
2018-12-20T14:06:29.287Z,7.60
2018-12-20T14:09:01.195Z,7.77
2018-12-20T14:11:32.688Z,7.40
2018-12-20T14:14:04.840Z,6.70
2018-12-20T14:16:47.812Z,6.67
2018-12-20T14:19:19.719Z,8.00
2018-12-20T14:21:50.336Z,7.73
2018-12-20T14:24:22.268Z,6.57
2018-12-20T14:26:53.667Z,5.27
2018-12-20T14:29:25.379Z,6.63
2018-12-20T14:31:57.223Z,7.00
2018-12-20T14:34:28.433Z,6.13
2018-12-20T14:37:00.468Z,10.20
2018-12-20T14:39:31.603Z,7.80
2018-12-20T14:42:03.182Z,8.77
2018-12-20T14:44:33.280Z,4.00
2018-12-20T14:47:04.686Z,8.07
2018-12-20T14:49:35.504Z,5.20
2018-12-20T14:52:06.255Z,8.50
2018-12-20T14:54:37.443Z,9.87
2018-12-20T14:57:09.621Z,7.30
2018-12-20T14:59:43.040Z,5.30
2018-12-20T15:02:16.063Z,7.33
2018-12-20T15:04:47.248Z,8.83
2018-12-20T15:07:19.319Z,6.97
2018-12-20T15:12:09.865Z,9.50
2018-12-20T15:14:41.244Z,7.30
2018-12-20T15:17:12.195Z,6.83
2018-12-20T15:19:45.390Z,6.60
2018-12-20T15:22:17.522Z,7.73
2018-12-20T15:24:48.724Z,8.37
2018-12-20T15:27:19.764Z,6.27
2018-12-20T15:29:50.054Z,5.30
2018-12-20T15:32:19.952Z,5.53
2018-12-20T15:34:50.444Z,7.97
2018-12-20T15:37:23.572Z,5.83
2018-12-20T15:39:53.727Z,9.33
2018-12-20T15:42:24.250Z,6.73
2018-12-20T15:44:57.321Z,9.40
2018-12-20T15:47:28.597Z,6.30
2018-12-20T15:49:59.585Z,6.03
2018-12-20T15:52:29.805Z,6.77
2018-12-20T15:55:01.863Z,7.67
2018-12-20T15:57:32.163Z,8.77
2018-12-20T16:00:02.781Z,5.27
2018-12-20T16:02:35.144Z,6.37
2018-12-20T16:05:10.131Z,6.93
2018-12-20T16:07:40.317Z,10.70
2018-12-20T16:10:14.460Z,8.60
2018-12-20T16:12:46.591Z,8.37
2018-12-20T16:15:16.904Z,6.07
2018-12-20T16:17:48.040Z,7.37
2018-12-20T16:20:20.684Z,8.67
2018-12-20T16:22:52.363Z,7.50
2018-12-20T16:25:23.569Z,9.23
2018-12-20T16:27:57.311Z,8.20
2018-12-20T16:30:30.105Z,8.07
2018-12-20T16:33:01.115Z,12.10
2018-12-20T16:35:35.292Z,9.97
2018-12-20T16:38:07.107Z,17.37
2018-12-20T16:40:37.962Z,10.60
2018-12-20T16:43:08.651Z,13.07
2018-12-20T16:45:41.053Z,12.83
2018-12-20T16:48:12.256Z,15.30
2018-12-20T16:50:42.879Z,15.40
2018-12-20T16:53:15.277Z,13.70
2018-12-20T16:55:50.227Z,10.30
2018-12-20T16:58:20.212Z,12.40
2018-12-20T17:00:50.755Z,14.93
2018-12-20T17:03:21.375Z,14.70
2018-12-20T17:05:51.508Z,15.73
2018-12-20T17:08:23.078Z,14.77
2018-12-20T17:10:54.992Z,14.10
2018-12-20T17:13:26.293Z,16.23
2018-12-20T17:15:57.412Z,13.93
2018-12-20T17:18:27.670Z,14.87
2018-12-20T17:20:58.731Z,13.43
2018-12-20T17:23:35.620Z,14.70
2018-12-20T17:26:05.462Z,16.23
2018-12-20T17:28:36.143Z,14.60
2018-12-20T17:31:06.293Z,15.87
2018-12-20T17:33:36.711Z,17.47
2018-12-20T17:36:06.647Z,17.07
2018-12-20T17:38:39.291Z,14.93
2018-12-20T17:41:09.461Z,15.47
2018-12-20T17:43:40.761Z,19.97
2018-12-20T17:46:12.461Z,20.93
2018-12-20T17:48:44.558Z,19.80
2018-12-20T17:51:15.002Z,19.97
2018-12-20T17:53:46.098Z,17.50
2018-12-20T17:56:17.441Z,17.07
2018-12-20T17:58:49.012Z,19.90
2018-12-20T18:01:19.876Z,18.43
2018-12-20T18:03:51.758Z,18.27
2018-12-20T18:06:25.418Z,19.43
2018-12-20T18:08:56.515Z,20.43
2018-12-20T18:11:27.033Z,21.13
2018-12-20T18:13:58.272Z,25.90
2018-12-20T18:16:29.125Z,22.73
2018-12-20T18:18:59.404Z,23.43
2018-12-20T18:21:31.138Z,25.73
2018-12-20T18:24:01.409Z,23.10
2018-12-20T18:26:32.529Z,27.20
2018-12-20T18:29:04.727Z,27.70
2018-12-20T18:31:36.221Z,30.17
2018-12-20T18:34:06.488Z,24.23
2018-12-20T18:36:36.737Z,26.47
2018-12-20T18:39:08.901Z,26.93
2018-12-20T18:41:41.051Z,28.70
2018-12-20T18:44:12.691Z,25.70
2018-12-20T18:46:42.531Z,27.30
2018-12-20T18:49:14.899Z,26.63
2018-12-20T18:51:45.679Z,24.57
2018-12-20T18:54:16.893Z,29.83
2018-12-20T18:56:48.852Z,21.10
2018-12-20T18:59:20.499Z,25.97
2018-12-20T19:01:57.028Z,29.50
2018-12-20T19:04:27.812Z,29.30
2018-12-20T19:06:58.082Z,27.37
2018-12-20T19:09:28.991Z,25.17
2018-12-20T19:12:01.141Z,23.63
2018-12-20T19:14:31.719Z,26.03
2018-12-20T19:17:03.496Z,31.20
2018-12-20T19:19:34.019Z,31.77
2018-12-20T19:22:04.668Z,27.47
2018-12-20T19:24:35.625Z,30.63
2018-12-20T19:27:07.284Z,27.97
2018-12-20T19:29:37.659Z,28.00
2018-12-20T19:32:09.647Z,30.63
2018-12-20T19:34:40.355Z,28.07
2018-12-20T19:37:11.836Z,34.90
2018-12-20T19:39:45.391Z,29.33
2018-12-20T19:42:17.295Z,30.43
2018-12-20T19:44:49.674Z,38.03
2018-12-20T19:47:21.207Z,31.33
2018-12-20T19:49:53.867Z,28.57
2018-12-20T19:52:23.998Z,27.97
2018-12-20T19:54:54.984Z,28.50
2018-12-20T19:57:25.518Z,31.77
2018-12-20T19:59:58.292Z,30.97
2018-12-20T20:02:28.561Z,28.10
2018-12-20T20:04:59.015Z,30.83
2018-12-20T20:07:30.701Z,26.60
2018-12-20T20:10:02.008Z,36.17
2018-12-20T20:12:32.315Z,26.63
2018-12-20T20:15:05.149Z,34.70
2018-12-20T20:17:36.371Z,30.80
2018-12-20T20:20:13.856Z,27.23
2018-12-20T20:22:45.372Z,27.80
2018-12-20T20:25:16.564Z,30.50
2018-12-20T20:27:48.088Z,29.50
2018-12-20T20:30:18.128Z,25.80
2018-12-20T20:32:48.871Z,39.00
2018-12-20T20:35:20.879Z,31.30
2018-12-20T20:37:51.053Z,31.57
2018-12-20T20:40:23.941Z,27.00
2018-12-20T20:42:55.349Z,31.43
2018-12-20T20:45:27.509Z,32.63
2018-12-20T20:47:59.094Z,29.57
2018-12-20T20:50:29.405Z,26.43
2018-12-20T20:52:59.278Z,30.23
2018-12-20T20:55:29.580Z,29.07
2018-12-20T20:58:01.491Z,29.20
2018-12-20T21:00:32.395Z,28.77
2018-12-20T21:03:03.299Z,30.93
2018-12-20T21:05:34.823Z,30.27
2018-12-20T21:08:06.273Z,29.70
2018-12-20T21:10:36.760Z,27.90
2018-12-20T21:13:08.206Z,25.13
2018-12-20T21:15:38.756Z,30.30
2018-12-20T21:18:11.151Z,30.10
2018-12-20T21:20:42.481Z,26.00
2018-12-20T21:23:13.579Z,29.43
2018-12-20T21:25:43.971Z,33.30
2018-12-20T21:28:14.695Z,29.37
2018-12-20T21:30:44.806Z,30.77
2018-12-20T21:33:15.583Z,39.07
2018-12-20T21:35:47.936Z,30.37
2018-12-20T21:38:19.035Z,29.80
2018-12-20T21:40:50.081Z,28.50
2018-12-20T21:43:20.602Z,28.60
2018-12-20T21:45:51.192Z,37.70
2018-12-20T21:48:22.604Z,28.83
2018-12-20T21:50:53.091Z,31.90
2018-12-20T21:53:24.210Z,33.30
2018-12-20T21:55:55.297Z,24.83
2018-12-20T21:58:25.252Z,28.40
2018-12-20T22:00:55.736Z,36.07
2018-12-20T22:03:26.271Z,29.23
2018-12-20T22:05:57.339Z,27.47
2018-12-20T22:08:29.739Z,27.73
2018-12-20T22:10:59.708Z,31.60
2018-12-20T22:13:30.910Z,27.47
2018-12-20T22:16:00.863Z,25.17
2018-12-20T22:18:30.936Z,27.30
2018-12-20T22:21:02.384Z,31.47
2018-12-20T22:23:32.516Z,28.97
2018-12-20T22:26:02.630Z,35.83
2018-12-20T22:28:32.696Z,29.10
2018-12-20T22:31:04.198Z,29.13
2018-12-20T22:33:35.094Z,29.67
2018-12-20T22:36:07.615Z,24.80
2018-12-20T22:38:37.917Z,23.87
2018-12-20T22:41:09.857Z,28.13
2018-12-20T22:43:40.881Z,30.03
2018-12-20T22:46:11.211Z,24.43
2018-12-20T22:48:41.482Z,26.70
2018-12-20T22:51:12.328Z,25.00
2018-12-20T22:53:42.755Z,30.83
2018-12-20T22:56:12.936Z,27.57
2018-12-20T22:58:43.796Z,27.80
2018-12-20T23:01:14.058Z,27.50
2018-12-20T23:03:45.054Z,24.07
2018-12-20T23:06:15.675Z,28.23
2018-12-20T23:08:48.896Z,22.50
2018-12-20T23:11:19.659Z,25.73
2018-12-20T23:13:49.875Z,26.50
2018-12-20T23:16:23.543Z,26.90
2018-12-20T23:18:54.613Z,27.70
2018-12-20T23:21:25.284Z,23.70
2018-12-20T23:23:55.940Z,22.63
2018-12-20T23:26:26.039Z,18.50
2018-12-20T23:28:56.419Z,27.90
2018-12-20T23:31:27.367Z,26.47
2018-12-20T23:33:58.456Z,22.50
2018-12-20T23:36:28.489Z,20.77
2018-12-20T23:38:58.405Z,24.87
2018-12-20T23:41:28.517Z,24.77
2018-12-20T23:43:58.695Z,33.93
2018-12-20T23:46:28.715Z,22.07
2018-12-20T23:49:00.380Z,23.70
2018-12-20T23:51:30.268Z,26.90
2018-12-20T23:54:01.576Z,21.83
2018-12-20T23:56:31.455Z,17.97
2018-12-20T23:59:01.284Z,21.10
